sensor_id;sensor_type;location;lat;lon;timestamp;P1;durP1;ratioP1;P2;durP2;ratioP2
72586;SDS011;60621;49.576;11.024;2023-03-03T00:00:25;31.65;;;16.23;;
72586;SDS011;60621;49.576;11.024;2023-03-03T00:01:27;26.65;;;12.63;;
72586;SDS011;60621;49.576;11.024;2023-03-03T00:02:28;26.05;;;11.68;;
72586;SDS011;60621;49.576;11.024;2023-03-03T00:03:30;26.50;;;11.00;;
72586;SDS011;60621;49.576;11.024;2023-03-03T00:04:32;25.02;;;11.55;;
72586;SDS011;60621;49.576;11.024;2023-03-03T00:05:33;24.75;;;11.48;;
72586;SDS011;60621;49.576;11.024;2023-03-03T00:06:36;22.90;;;10.63;;
72586;SDS011;60621;49.576;11.024;2023-03-03T00:07:37;24.67;;;11.05;;
72586;SDS011;60621;49.576;11.024;2023-03-03T00:08:39;23.40;;;11.32;;
72586;SDS011;60621;49.576;11.024;2023-03-03T00:09:41;24.13;;;10.98;;
72586;SDS011;60621;49.576;11.024;2023-03-03T00:10:42;24.15;;;10.93;;
72586;SDS011;60621;49.576;11.024;2023-03-03T00:11:46;25.75;;;10.88;;
72586;SDS011;60621;49.576;11.024;2023-03-03T00:12:50;23.65;;;10.93;;
72586;SDS011;60621;49.576;11.024;2023-03-03T00:13:53;21.90;;;10.80;;
72586;SDS011;60621;49.576;11.024;2023-03-03T00:14:58;23.58;;;10.57;;
72586;SDS011;60621;49.576;11.024;2023-03-03T00:16:20;20.73;;;9.93;;
72586;SDS011;60621;49.576;11.024;2023-03-03T00:17:26;20.23;;;9.50;;
72586;SDS011;60621;49.576;11.024;2023-03-03T00:18:32;22.27;;;9.52;;
72586;SDS011;60621;49.576;11.024;2023-03-03T00:19:37;20.75;;;9.40;;
72586;SDS011;60621;49.576;11.024;2023-03-03T00:20:45;23.85;;;10.57;;
72586;SDS011;60621;49.576;11.024;2023-03-03T00:21:50;20.23;;;9.32;;
72586;SDS011;60621;49.576;11.024;2023-03-03T00:22:52;22.02;;;9.90;;
72586;SDS011;60621;49.576;11.024;2023-03-03T00:23:54;21.40;;;9.85;;
72586;SDS011;60621;49.576;11.024;2023-03-03T00:25:27;23.13;;;9.73;;
72586;SDS011;60621;49.576;11.024;2023-03-03T00:26:34;23.27;;;10.13;;
72586;SDS011;60621;49.576;11.024;2023-03-03T00:27:38;21.63;;;9.88;;
72586;SDS011;60621;49.576;11.024;2023-03-03T00:28:50;21.17;;;9.20;;
72586;SDS011;60621;49.576;11.024;2023-03-03T00:29:53;19.60;;;9.20;;
72586;SDS011;60621;49.576;11.024;2023-03-03T00:30:58;22.17;;;9.73;;
72586;SDS011;60621;49.576;11.024;2023-03-03T00:34:32;22.42;;;10.25;;
72586;SDS011;60621;49.576;11.024;2023-03-03T00:35:34;58.78;;;27.25;;
72586;SDS011;60621;49.576;11.024;2023-03-03T00:36:38;43.17;;;18.63;;
72586;SDS011;60621;49.576;11.024;2023-03-03T00:37:41;66.68;;;31.77;;
72586;SDS011;60621;49.576;11.024;2023-03-03T00:38:42;48.90;;;21.15;;
72586;SDS011;60621;49.576;11.024;2023-03-03T00:39:44;23.70;;;10.48;;
72586;SDS011;60621;49.576;11.024;2023-03-03T00:40:46;22.98;;;10.48;;
72586;SDS011;60621;49.576;11.024;2023-03-03T00:41:48;22.85;;;10.15;;
72586;SDS011;60621;49.576;11.024;2023-03-03T00:42:54;24.25;;;11.40;;
72586;SDS011;60621;49.576;11.024;2023-03-03T00:43:57;23.25;;;10.95;;
72586;SDS011;60621;49.576;11.024;2023-03-03T00:44:59;22.25;;;10.43;;
72586;SDS011;60621;49.576;11.024;2023-03-03T00:46:01;25.27;;;10.90;;
72586;SDS011;60621;49.576;11.024;2023-03-03T00:49:35;84.93;;;25.05;;
72586;SDS011;60621;49.576;11.024;2023-03-03T00:50:37;51.47;;;17.92;;
72586;SDS011;60621;49.576;11.024;2023-03-03T00:51:41;22.75;;;10.13;;
72586;SDS011;60621;49.576;11.024;2023-03-03T00:52:45;20.13;;;9.75;;
72586;SDS011;60621;49.576;11.024;2023-03-03T00:54:05;21.13;;;9.02;;
72586;SDS011;60621;49.576;11.024;2023-03-03T00:55:07;22.40;;;9.88;;
72586;SDS011;60621;49.576;11.024;2023-03-03T00:56:10;23.77;;;10.15;;
72586;SDS011;60621;49.576;11.024;2023-03-03T00:57:11;23.17;;;10.38;;
72586;SDS011;60621;49.576;11.024;2023-03-03T00:58:13;24.80;;;10.85;;
72586;SDS011;60621;49.576;11.024;2023-03-03T00:59:15;20.33;;;9.50;;
72586;SDS011;60621;49.576;11.024;2023-03-03T01:00:17;26.48;;;10.05;;
72586;SDS011;60621;49.576;11.024;2023-03-03T01:01:18;19.98;;;10.35;;
72586;SDS011;60621;49.576;11.024;2023-03-03T01:02:20;23.58;;;10.77;;
72586;SDS011;60621;49.576;11.024;2023-03-03T01:03:23;24.10;;;10.77;;
72586;SDS011;60621;49.576;11.024;2023-03-03T01:04:25;24.08;;;10.70;;
72586;SDS011;60621;49.576;11.024;2023-03-03T01:05:27;21.70;;;9.88;;
72586;SDS011;60621;49.576;11.024;2023-03-03T01:06:28;23.60;;;10.23;;
72586;SDS011;60621;49.576;11.024;2023-03-03T01:07:30;22.65;;;10.25;;
72586;SDS011;60621;49.576;11.024;2023-03-03T01:08:31;24.77;;;11.23;;
72586;SDS011;60621;49.576;11.024;2023-03-03T01:09:33;28.60;;;12.80;;
72586;SDS011;60621;49.576;11.024;2023-03-03T01:10:36;24.70;;;10.70;;
72586;SDS011;60621;49.576;11.024;2023-03-03T01:11:43;24.77;;;10.32;;
72586;SDS011;60621;49.576;11.024;2023-03-03T01:12:45;22.52;;;10.40;;
72586;SDS011;60621;49.576;11.024;2023-03-03T01:13:47;25.25;;;10.45;;
72586;SDS011;60621;49.576;11.024;2023-03-03T01:14:50;27.60;;;11.57;;
72586;SDS011;60621;49.576;11.024;2023-03-03T01:18:57;30.30;;;11.85;;
72586;SDS011;60621;49.576;11.024;2023-03-03T01:19:59;38.28;;;13.18;;
72586;SDS011;60621;49.576;11.024;2023-03-03T01:21:01;30.02;;;11.88;;
72586;SDS011;60621;49.576;11.024;2023-03-03T01:22:03;55.78;;;20.25;;
72586;SDS011;60621;49.576;11.024;2023-03-03T01:23:05;50.17;;;18.10;;
72586;SDS011;60621;49.576;11.024;2023-03-03T01:24:07;75.50;;;22.45;;
72586;SDS011;60621;49.576;11.024;2023-03-03T01:25:08;110.25;;;29.70;;
72586;SDS011;60621;49.576;11.024;2023-03-03T01:26:10;116.65;;;30.73;;
72586;SDS011;60621;49.576;11.024;2023-03-03T01:27:12;191.43;;;50.05;;
72586;SDS011;60621;49.576;11.024;2023-03-03T01:28:14;210.63;;;52.70;;
72586;SDS011;60621;49.576;11.024;2023-03-03T01:29:15;167.88;;;48.00;;
72586;SDS011;60621;49.576;11.024;2023-03-03T01:30:17;231.93;;;71.68;;
72586;SDS011;60621;49.576;11.024;2023-03-03T01:31:18;236.60;;;64.20;;
72586;SDS011;60621;49.576;11.024;2023-03-03T01:32:20;196.63;;;54.97;;
72586;SDS011;60621;49.576;11.024;2023-03-03T01:33:22;383.60;;;109.85;;
72586;SDS011;60621;49.576;11.024;2023-03-03T01:34:23;308.08;;;91.50;;
72586;SDS011;60621;49.576;11.024;2023-03-03T01:35:25;44.92;;;18.25;;
72586;SDS011;60621;49.576;11.024;2023-03-03T01:36:27;66.53;;;28.90;;
72586;SDS011;60621;49.576;11.024;2023-03-03T01:37:29;63.75;;;27.90;;
72586;SDS011;60621;49.576;11.024;2023-03-03T01:38:30;24.52;;;11.73;;
72586;SDS011;60621;49.576;11.024;2023-03-03T01:39:35;21.67;;;9.80;;
72586;SDS011;60621;49.576;11.024;2023-03-03T01:40:36;22.90;;;10.32;;
72586;SDS011;60621;49.576;11.024;2023-03-03T01:41:38;23.90;;;9.65;;
72586;SDS011;60621;49.576;11.024;2023-03-03T01:42:40;22.92;;;10.55;;
72586;SDS011;60621;49.576;11.024;2023-03-03T01:43:46;21.23;;;9.32;;
72586;SDS011;60621;49.576;11.024;2023-03-03T01:45:07;21.30;;;9.88;;
72586;SDS011;60621;49.576;11.024;2023-03-03T01:47:31;21.92;;;9.93;;
72586;SDS011;60621;49.576;11.024;2023-03-03T01:48:37;21.73;;;10.23;;
72586;SDS011;60621;49.576;11.024;2023-03-03T01:49:50;22.67;;;10.60;;
72586;SDS011;60621;49.576;11.024;2023-03-03T01:50:58;20.85;;;10.85;;
72586;SDS011;60621;49.576;11.024;2023-03-03T01:52:04;22.52;;;10.32;;
72586;SDS011;60621;49.576;11.024;2023-03-03T01:53:27;20.75;;;9.90;;
72586;SDS011;60621;49.576;11.024;2023-03-03T01:54:35;22.85;;;9.80;;
72586;SDS011;60621;49.576;11.024;2023-03-03T01:55:41;24.05;;;9.52;;
72586;SDS011;60621;49.576;11.024;2023-03-03T01:56:45;21.77;;;9.80;;
72586;SDS011;60621;49.576;11.024;2023-03-03T01:57:49;20.77;;;9.43;;
72586;SDS011;60621;49.576;11.024;2023-03-03T01:59:00;21.30;;;9.30;;
72586;SDS011;60621;49.576;11.024;2023-03-03T02:00:07;21.48;;;9.50;;
72586;SDS011;60621;49.576;11.024;2023-03-03T02:01:11;21.58;;;9.77;;
72586;SDS011;60621;49.576;11.024;2023-03-03T02:02:16;20.33;;;8.98;;
72586;SDS011;60621;49.576;11.024;2023-03-03T02:03:20;18.67;;;9.63;;
72586;SDS011;60621;49.576;11.024;2023-03-03T02:04:23;22.42;;;9.27;;
72586;SDS011;60621;49.576;11.024;2023-03-03T02:05:26;19.95;;;9.30;;
72586;SDS011;60621;49.576;11.024;2023-03-03T02:06:39;22.88;;;9.82;;
72586;SDS011;60621;49.576;11.024;2023-03-03T02:07:46;23.17;;;10.45;;
72586;SDS011;60621;49.576;11.024;2023-03-03T02:11:20;22.73;;;9.77;;
72586;SDS011;60621;49.576;11.024;2023-03-03T02:12:25;24.67;;;10.55;;
72586;SDS011;60621;49.576;11.024;2023-03-03T02:13:33;22.38;;;9.95;;
72586;SDS011;60621;49.576;11.024;2023-03-03T02:14:35;24.13;;;10.05;;
72586;SDS011;60621;49.576;11.024;2023-03-03T02:15:36;24.67;;;10.60;;
72586;SDS011;60621;49.576;11.024;2023-03-03T02:16:38;22.70;;;9.75;;
72586;SDS011;60621;49.576;11.024;2023-03-03T02:17:40;20.90;;;10.27;;
72586;SDS011;60621;49.576;11.024;2023-03-03T02:18:42;21.48;;;9.98;;
72586;SDS011;60621;49.576;11.024;2023-03-03T02:19:51;24.50;;;10.75;;
72586;SDS011;60621;49.576;11.024;2023-03-03T02:21:02;21.65;;;10.20;;
72586;SDS011;60621;49.576;11.024;2023-03-03T02:22:10;21.92;;;9.70;;
72586;SDS011;60621;49.576;11.024;2023-03-03T02:24:31;23.27;;;10.07;;
72586;SDS011;60621;49.576;11.024;2023-03-03T02:26:59;26.20;;;11.60;;
72586;SDS011;60621;49.576;11.024;2023-03-03T02:28:01;23.38;;;10.13;;
72586;SDS011;60621;49.576;11.024;2023-03-03T02:29:03;22.92;;;10.50;;
72586;SDS011;60621;49.576;11.024;2023-03-03T02:30:09;23.27;;;10.27;;
72586;SDS011;60621;49.576;11.024;2023-03-03T02:31:14;22.77;;;10.30;;
72586;SDS011;60621;49.576;11.024;2023-03-03T02:32:18;21.95;;;10.35;;
72586;SDS011;60621;49.576;11.024;2023-03-03T02:33:20;23.70;;;10.32;;
72586;SDS011;60621;49.576;11.024;2023-03-03T02:34:22;23.13;;;10.60;;
72586;SDS011;60621;49.576;11.024;2023-03-03T02:36:32;22.58;;;9.85;;
72586;SDS011;60621;49.576;11.024;2023-03-03T02:37:35;23.33;;;10.35;;
72586;SDS011;60621;49.576;11.024;2023-03-03T02:38:42;22.83;;;10.90;;
72586;SDS011;60621;49.576;11.024;2023-03-03T02:39:58;23.02;;;9.93;;
72586;SDS011;60621;49.576;11.024;2023-03-03T02:41:02;23.73;;;10.25;;
72586;SDS011;60621;49.576;11.024;2023-03-03T02:42:17;22.77;;;10.60;;
72586;SDS011;60621;49.576;11.024;2023-03-03T02:43:24;21.65;;;10.00;;
72586;SDS011;60621;49.576;11.024;2023-03-03T02:44:31;24.35;;;10.00;;
72586;SDS011;60621;49.576;11.024;2023-03-03T02:45:33;20.95;;;10.07;;
72586;SDS011;60621;49.576;11.024;2023-03-03T02:46:43;25.10;;;10.90;;
72586;SDS011;60621;49.576;11.024;2023-03-03T02:47:49;23.52;;;10.13;;
72586;SDS011;60621;49.576;11.024;2023-03-03T02:48:51;21.65;;;9.32;;
72586;SDS011;60621;49.576;11.024;2023-03-03T02:49:53;22.75;;;9.77;;
72586;SDS011;60621;49.576;11.024;2023-03-03T02:50:54;24.63;;;10.27;;
72586;SDS011;60621;49.576;11.024;2023-03-03T02:51:58;24.83;;;10.32;;
72586;SDS011;60621;49.576;11.024;2023-03-03T02:53:01;23.75;;;10.30;;
72586;SDS011;60621;49.576;11.024;2023-03-03T02:54:03;25.17;;;10.23;;
72586;SDS011;60621;49.576;11.024;2023-03-03T02:55:05;25.33;;;10.07;;
72586;SDS011;60621;49.576;11.024;2023-03-03T02:56:08;23.65;;;9.95;;
72586;SDS011;60621;49.576;11.024;2023-03-03T02:57:09;23.33;;;9.75;;
72586;SDS011;60621;49.576;11.024;2023-03-03T02:58:11;27.02;;;11.02;;
72586;SDS011;60621;49.576;11.024;2023-03-03T02:59:12;20.88;;;9.93;;
72586;SDS011;60621;49.576;11.024;2023-03-03T03:00:14;23.05;;;10.52;;
72586;SDS011;60621;49.576;11.024;2023-03-03T03:01:16;22.95;;;10.43;;
72586;SDS011;60621;49.576;11.024;2023-03-03T03:02:18;23.15;;;10.50;;
72586;SDS011;60621;49.576;11.024;2023-03-03T03:03:19;23.92;;;10.68;;
72586;SDS011;60621;49.576;11.024;2023-03-03T03:04:22;22.33;;;10.23;;
72586;SDS011;60621;49.576;11.024;2023-03-03T03:05:25;22.55;;;10.63;;
72586;SDS011;60621;49.576;11.024;2023-03-03T03:06:27;23.73;;;10.80;;
72586;SDS011;60621;49.576;11.024;2023-03-03T03:07:28;21.65;;;9.80;;
72586;SDS011;60621;49.576;11.024;2023-03-03T03:08:30;22.98;;;10.27;;
72586;SDS011;60621;49.576;11.024;2023-03-03T03:09:31;22.00;;;10.85;;
72586;SDS011;60621;49.576;11.024;2023-03-03T03:10:34;22.98;;;10.65;;
72586;SDS011;60621;49.576;11.024;2023-03-03T03:11:36;22.75;;;10.43;;
72586;SDS011;60621;49.576;11.024;2023-03-03T03:12:38;23.23;;;10.30;;
72586;SDS011;60621;49.576;11.024;2023-03-03T03:13:40;23.80;;;10.82;;
72586;SDS011;60621;49.576;11.024;2023-03-03T03:14:41;20.48;;;9.70;;
72586;SDS011;60621;49.576;11.024;2023-03-03T03:15:46;22.70;;;10.52;;
72586;SDS011;60621;49.576;11.024;2023-03-03T03:16:47;22.77;;;10.45;;
72586;SDS011;60621;49.576;11.024;2023-03-03T03:17:49;24.08;;;10.80;;
72586;SDS011;60621;49.576;11.024;2023-03-03T03:18:51;23.55;;;10.65;;
72586;SDS011;60621;49.576;11.024;2023-03-03T03:19:53;20.98;;;9.80;;
72586;SDS011;60621;49.576;11.024;2023-03-03T03:20:54;22.27;;;10.50;;
72586;SDS011;60621;49.576;11.024;2023-03-03T03:21:56;22.52;;;10.27;;
72586;SDS011;60621;49.576;11.024;2023-03-03T03:22:57;22.58;;;10.55;;
72586;SDS011;60621;49.576;11.024;2023-03-03T03:24:01;23.80;;;10.57;;
72586;SDS011;60621;49.576;11.024;2023-03-03T03:25:03;24.25;;;10.85;;
72586;SDS011;60621;49.576;11.024;2023-03-03T03:26:05;21.00;;;9.38;;
72586;SDS011;60621;49.576;11.024;2023-03-03T03:27:07;23.20;;;10.07;;
72586;SDS011;60621;49.576;11.024;2023-03-03T03:28:09;21.25;;;9.73;;
72586;SDS011;60621;49.576;11.024;2023-03-03T03:29:14;21.73;;;10.10;;
72586;SDS011;60621;49.576;11.024;2023-03-03T03:30:16;27.15;;;11.18;;
72586;SDS011;60621;49.576;11.024;2023-03-03T03:31:20;21.70;;;9.80;;
72586;SDS011;60621;49.576;11.024;2023-03-03T03:32:22;21.55;;;10.57;;
72586;SDS011;60621;49.576;11.024;2023-03-03T03:33:24;24.25;;;10.63;;
72586;SDS011;60621;49.576;11.024;2023-03-03T03:34:25;25.95;;;10.95;;
72586;SDS011;60621;49.576;11.024;2023-03-03T03:35:27;20.98;;;10.27;;
72586;SDS011;60621;49.576;11.024;2023-03-03T03:36:28;22.77;;;10.02;;
72586;SDS011;60621;49.576;11.024;2023-03-03T03:37:30;22.60;;;10.18;;
72586;SDS011;60621;49.576;11.024;2023-03-03T03:38:32;21.42;;;10.45;;
72586;SDS011;60621;49.576;11.024;2023-03-03T03:39:34;25.25;;;10.07;;
72586;SDS011;60621;49.576;11.024;2023-03-03T03:40:36;23.77;;;10.35;;
72586;SDS011;60621;49.576;11.024;2023-03-03T03:41:37;25.75;;;10.85;;
72586;SDS011;60621;49.576;11.024;2023-03-03T03:42:39;22.08;;;10.60;;
72586;SDS011;60621;49.576;11.024;2023-03-03T03:43:41;22.42;;;10.18;;
72586;SDS011;60621;49.576;11.024;2023-03-03T03:44:42;21.55;;;10.57;;
72586;SDS011;60621;49.576;11.024;2023-03-03T03:45:44;24.15;;;10.75;;
72586;SDS011;60621;49.576;11.024;2023-03-03T03:46:46;23.70;;;10.60;;
72586;SDS011;60621;49.576;11.024;2023-03-03T03:47:47;24.40;;;11.10;;
72586;SDS011;60621;49.576;11.024;2023-03-03T03:48:49;24.77;;;10.93;;
72586;SDS011;60621;49.576;11.024;2023-03-03T03:49:50;22.27;;;10.35;;
72586;SDS011;60621;49.576;11.024;2023-03-03T03:50:52;22.17;;;10.45;;
72586;SDS011;60621;49.576;11.024;2023-03-03T03:51:54;22.85;;;10.35;;
72586;SDS011;60621;49.576;11.024;2023-03-03T03:52:55;25.08;;;10.63;;
72586;SDS011;60621;49.576;11.024;2023-03-03T03:53:57;25.50;;;11.05;;
72586;SDS011;60621;49.576;11.024;2023-03-03T03:55:01;25.60;;;10.15;;
72586;SDS011;60621;49.576;11.024;2023-03-03T03:56:02;22.73;;;10.25;;
72586;SDS011;60621;49.576;11.024;2023-03-03T03:57:04;24.73;;;10.73;;
72586;SDS011;60621;49.576;11.024;2023-03-03T03:58:05;23.25;;;10.35;;
72586;SDS011;60621;49.576;11.024;2023-03-03T03:59:07;23.73;;;11.15;;
72586;SDS011;60621;49.576;11.024;2023-03-03T04:00:09;25.08;;;10.45;;
72586;SDS011;60621;49.576;11.024;2023-03-03T04:01:11;21.13;;;10.07;;
72586;SDS011;60621;49.576;11.024;2023-03-03T04:02:13;22.70;;;10.68;;
72586;SDS011;60621;49.576;11.024;2023-03-03T04:03:19;23.25;;;10.70;;
72586;SDS011;60621;49.576;11.024;2023-03-03T04:04:21;22.30;;;10.07;;
72586;SDS011;60621;49.576;11.024;2023-03-03T04:05:23;23.45;;;11.38;;
72586;SDS011;60621;49.576;11.024;2023-03-03T04:06:25;25.10;;;9.73;;
72586;SDS011;60621;49.576;11.024;2023-03-03T04:07:26;22.25;;;10.73;;
72586;SDS011;60621;49.576;11.024;2023-03-03T04:08:28;23.80;;;10.50;;
72586;SDS011;60621;49.576;11.024;2023-03-03T04:09:30;22.60;;;10.88;;
72586;SDS011;60621;49.576;11.024;2023-03-03T04:10:34;22.05;;;9.95;;
72586;SDS011;60621;49.576;11.024;2023-03-03T04:11:35;23.85;;;10.32;;
72586;SDS011;60621;49.576;11.024;2023-03-03T04:12:37;22.83;;;10.05;;
72586;SDS011;60621;49.576;11.024;2023-03-03T04:13:38;23.58;;;11.13;;
72586;SDS011;60621;49.576;11.024;2023-03-03T04:14:40;24.90;;;10.30;;
72586;SDS011;60621;49.576;11.024;2023-03-03T04:15:42;22.60;;;9.80;;
72586;SDS011;60621;49.576;11.024;2023-03-03T04:16:43;23.67;;;9.85;;
72586;SDS011;60621;49.576;11.024;2023-03-03T04:17:45;27.20;;;11.43;;
72586;SDS011;60621;49.576;11.024;2023-03-03T04:18:47;20.48;;;9.85;;
72586;SDS011;60621;49.576;11.024;2023-03-03T04:19:51;27.88;;;10.65;;
72586;SDS011;60621;49.576;11.024;2023-03-03T04:20:53;26.42;;;10.60;;
72586;SDS011;60621;49.576;11.024;2023-03-03T04:21:55;22.75;;;10.15;;
72586;SDS011;60621;49.576;11.024;2023-03-03T04:22:56;22.27;;;9.57;;
72586;SDS011;60621;49.576;11.024;2023-03-03T04:23:58;21.10;;;9.57;;
72586;SDS011;60621;49.576;11.024;2023-03-03T04:25:00;24.17;;;10.82;;
72586;SDS011;60621;49.576;11.024;2023-03-03T04:26:05;24.60;;;10.50;;
72586;SDS011;60621;49.576;11.024;2023-03-03T04:27:07;24.33;;;10.23;;
72586;SDS011;60621;49.576;11.024;2023-03-03T04:28:09;23.83;;;10.50;;
72586;SDS011;60621;49.576;11.024;2023-03-03T04:29:11;25.45;;;10.75;;
72586;SDS011;60621;49.576;11.024;2023-03-03T04:30:13;21.65;;;9.65;;
72586;SDS011;60621;49.576;11.024;2023-03-03T04:31:15;25.55;;;10.63;;
72586;SDS011;60621;49.576;11.024;2023-03-03T04:32:17;21.98;;;9.90;;
72586;SDS011;60621;49.576;11.024;2023-03-03T04:33:18;25.30;;;11.00;;
72586;SDS011;60621;49.576;11.024;2023-03-03T04:34:20;23.95;;;10.90;;
72586;SDS011;60621;49.576;11.024;2023-03-03T04:35:22;23.17;;;10.13;;
72586;SDS011;60621;49.576;11.024;2023-03-03T04:37:26;23.95;;;9.90;;
72586;SDS011;60621;49.576;11.024;2023-03-03T04:38:28;25.67;;;10.13;;
72586;SDS011;60621;49.576;11.024;2023-03-03T04:39:29;23.67;;;10.25;;
72586;SDS011;60621;49.576;11.024;2023-03-03T04:40:31;25.92;;;11.13;;
72586;SDS011;60621;49.576;11.024;2023-03-03T04:41:32;24.95;;;10.48;;
72586;SDS011;60621;49.576;11.024;2023-03-03T04:42:34;23.77;;;10.20;;
72586;SDS011;60621;49.576;11.024;2023-03-03T04:43:38;20.08;;;9.65;;
72586;SDS011;60621;49.576;11.024;2023-03-03T04:44:40;23.05;;;11.15;;
72586;SDS011;60621;49.576;11.024;2023-03-03T04:45:41;21.17;;;10.85;;
72586;SDS011;60621;49.576;11.024;2023-03-03T04:46:43;22.95;;;10.48;;
72586;SDS011;60621;49.576;11.024;2023-03-03T04:47:44;20.90;;;10.05;;
72586;SDS011;60621;49.576;11.024;2023-03-03T04:48:46;23.58;;;10.40;;
72586;SDS011;60621;49.576;11.024;2023-03-03T04:49:47;24.15;;;10.40;;
72586;SDS011;60621;49.576;11.024;2023-03-03T04:50:49;25.38;;;10.60;;
72586;SDS011;60621;49.576;11.024;2023-03-03T04:51:50;25.65;;;10.45;;
72586;SDS011;60621;49.576;11.024;2023-03-03T04:52:52;24.08;;;10.38;;
72586;SDS011;60621;49.576;11.024;2023-03-03T04:53:54;23.02;;;10.32;;
72586;SDS011;60621;49.576;11.024;2023-03-03T04:54:55;23.13;;;10.23;;
72586;SDS011;60621;49.576;11.024;2023-03-03T04:55:57;21.02;;;9.43;;
72586;SDS011;60621;49.576;11.024;2023-03-03T04:56:58;22.25;;;10.00;;
72586;SDS011;60621;49.576;11.024;2023-03-03T04:58:00;21.83;;;9.98;;
72586;SDS011;60621;49.576;11.024;2023-03-03T04:59:01;23.55;;;10.52;;
72586;SDS011;60621;49.576;11.024;2023-03-03T05:00:03;23.80;;;10.38;;
72586;SDS011;60621;49.576;11.024;2023-03-03T05:01:09;22.30;;;10.13;;
72586;SDS011;60621;49.576;11.024;2023-03-03T05:02:13;23.13;;;10.38;;
72586;SDS011;60621;49.576;11.024;2023-03-03T05:03:15;26.25;;;10.82;;
72586;SDS011;60621;49.576;11.024;2023-03-03T05:04:16;24.23;;;9.98;;
72586;SDS011;60621;49.576;11.024;2023-03-03T05:05:18;21.10;;;9.60;;
72586;SDS011;60621;49.576;11.024;2023-03-03T05:06:19;23.52;;;10.73;;
72586;SDS011;60621;49.576;11.024;2023-03-03T05:07:21;21.58;;;10.65;;
72586;SDS011;60621;49.576;11.024;2023-03-03T05:08:23;21.85;;;9.50;;
72586;SDS011;60621;49.576;11.024;2023-03-03T05:09:25;23.35;;;10.32;;
72586;SDS011;60621;49.576;11.024;2023-03-03T05:10:27;22.00;;;9.75;;
72586;SDS011;60621;49.576;11.024;2023-03-03T05:11:28;24.40;;;10.18;;
72586;SDS011;60621;49.576;11.024;2023-03-03T05:12:30;24.13;;;10.32;;
72586;SDS011;60621;49.576;11.024;2023-03-03T05:13:31;22.98;;;10.93;;
72586;SDS011;60621;49.576;11.024;2023-03-03T05:14:33;24.15;;;10.05;;
72586;SDS011;60621;49.576;11.024;2023-03-03T05:15:34;24.42;;;10.55;;
72586;SDS011;60621;49.576;11.024;2023-03-03T05:16:36;25.92;;;10.80;;
72586;SDS011;60621;49.576;11.024;2023-03-03T05:17:38;21.52;;;10.93;;
72586;SDS011;60621;49.576;11.024;2023-03-03T05:18:39;21.58;;;9.68;;
72586;SDS011;60621;49.576;11.024;2023-03-03T05:19:41;21.90;;;10.02;;
72586;SDS011;60621;49.576;11.024;2023-03-03T05:20:43;21.88;;;10.40;;
72586;SDS011;60621;49.576;11.024;2023-03-03T05:21:44;24.58;;;10.40;;
72586;SDS011;60621;49.576;11.024;2023-03-03T05:22:46;22.27;;;10.07;;
72586;SDS011;60621;49.576;11.024;2023-03-03T05:23:47;27.50;;;11.50;;
72586;SDS011;60621;49.576;11.024;2023-03-03T05:24:49;24.63;;;11.85;;
72586;SDS011;60621;49.576;11.024;2023-03-03T05:25:51;27.85;;;11.85;;
72586;SDS011;60621;49.576;11.024;2023-03-03T05:26:52;26.85;;;11.27;;
72586;SDS011;60621;49.576;11.024;2023-03-03T05:27:57;27.75;;;11.90;;
72586;SDS011;60621;49.576;11.024;2023-03-03T05:28:58;27.48;;;11.98;;
72586;SDS011;60621;49.576;11.024;2023-03-03T05:30:00;26.48;;;11.98;;
72586;SDS011;60621;49.576;11.024;2023-03-03T05:31:01;25.67;;;11.57;;
72586;SDS011;60621;49.576;11.024;2023-03-03T05:32:03;26.90;;;11.45;;
72586;SDS011;60621;49.576;11.024;2023-03-03T05:33:05;28.70;;;11.50;;
72586;SDS011;60621;49.576;11.024;2023-03-03T05:34:07;26.30;;;11.55;;
72586;SDS011;60621;49.576;11.024;2023-03-03T05:35:09;26.15;;;11.90;;
72586;SDS011;60621;49.576;11.024;2023-03-03T05:36:10;27.83;;;12.13;;
72586;SDS011;60621;49.576;11.024;2023-03-03T05:37:12;28.23;;;11.57;;
72586;SDS011;60621;49.576;11.024;2023-03-03T05:38:13;25.58;;;11.73;;
72586;SDS011;60621;49.576;11.024;2023-03-03T05:39:15;28.70;;;12.23;;
72586;SDS011;60621;49.576;11.024;2023-03-03T05:40:16;29.23;;;12.18;;
72586;SDS011;60621;49.576;11.024;2023-03-03T05:41:19;27.05;;;12.18;;
72586;SDS011;60621;49.576;11.024;2023-03-03T05:42:21;26.80;;;12.27;;
72586;SDS011;60621;49.576;11.024;2023-03-03T05:43:22;27.05;;;11.38;;
72586;SDS011;60621;49.576;11.024;2023-03-03T05:44:24;26.75;;;11.65;;
72586;SDS011;60621;49.576;11.024;2023-03-03T05:45:27;27.88;;;11.60;;
72586;SDS011;60621;49.576;11.024;2023-03-03T05:46:28;27.88;;;11.73;;
72586;SDS011;60621;49.576;11.024;2023-03-03T05:47:30;25.30;;;11.20;;
72586;SDS011;60621;49.576;11.024;2023-03-03T05:48:31;28.15;;;12.23;;
72586;SDS011;60621;49.576;11.024;2023-03-03T05:49:33;29.30;;;12.35;;
72586;SDS011;60621;49.576;11.024;2023-03-03T05:50:35;25.30;;;11.55;;
72586;SDS011;60621;49.576;11.024;2023-03-03T05:52:39;26.83;;;10.68;;
72586;SDS011;60621;49.576;11.024;2023-03-03T05:53:41;27.58;;;11.32;;
72586;SDS011;60621;49.576;11.024;2023-03-03T05:54:43;25.48;;;11.02;;
72586;SDS011;60621;49.576;11.024;2023-03-03T05:55:44;27.70;;;11.57;;
72586;SDS011;60621;49.576;11.024;2023-03-03T05:56:46;26.75;;;11.50;;
72586;SDS011;60621;49.576;11.024;2023-03-03T05:57:47;28.77;;;12.20;;
72586;SDS011;60621;49.576;11.024;2023-03-03T05:58:49;26.55;;;11.63;;
72586;SDS011;60621;49.576;11.024;2023-03-03T05:59:50;29.27;;;12.05;;
72586;SDS011;60621;49.576;11.024;2023-03-03T06:00:52;25.92;;;11.40;;
72586;SDS011;60621;49.576;11.024;2023-03-03T06:01:54;29.00;;;12.32;;
72586;SDS011;60621;49.576;11.024;2023-03-03T06:02:55;27.65;;;11.73;;
72586;SDS011;60621;49.576;11.024;2023-03-03T06:03:57;32.50;;;12.45;;
72586;SDS011;60621;49.576;11.024;2023-03-03T06:04:58;28.25;;;12.07;;
72586;SDS011;60621;49.576;11.024;2023-03-03T06:06:00;28.20;;;12.52;;
72586;SDS011;60621;49.576;11.024;2023-03-03T06:07:01;23.83;;;11.25;;
72586;SDS011;60621;49.576;11.024;2023-03-03T06:08:03;28.55;;;11.98;;
72586;SDS011;60621;49.576;11.024;2023-03-03T06:09:05;25.33;;;11.27;;
72586;SDS011;60621;49.576;11.024;2023-03-03T06:10:07;27.00;;;11.93;;
72586;SDS011;60621;49.576;11.024;2023-03-03T06:11:09;24.23;;;10.85;;
72586;SDS011;60621;49.576;11.024;2023-03-03T06:12:11;27.70;;;11.75;;
72586;SDS011;60621;49.576;11.024;2023-03-03T06:13:12;26.17;;;12.13;;
72586;SDS011;60621;49.576;11.024;2023-03-03T06:14:14;27.38;;;11.75;;
72586;SDS011;60621;49.576;11.024;2023-03-03T06:15:15;29.10;;;12.65;;
72586;SDS011;60621;49.576;11.024;2023-03-03T06:16:17;28.85;;;11.75;;
72586;SDS011;60621;49.576;11.024;2023-03-03T06:17:19;29.77;;;12.13;;
72586;SDS011;60621;49.576;11.024;2023-03-03T06:18:21;30.75;;;12.25;;
72586;SDS011;60621;49.576;11.024;2023-03-03T06:19:22;27.00;;;11.65;;
72586;SDS011;60621;49.576;11.024;2023-03-03T06:20:25;26.17;;;11.38;;
72586;SDS011;60621;49.576;11.024;2023-03-03T06:21:26;27.83;;;12.05;;